Sacramento Executive Airport Sacramento US
ICAO: KSAC
IATA: SAC
Category: Medium
Scheduled Services: No

Elevation: 24 ft
TransAlt. 18000 ft.

Airport Communications:
NORCAL APP/DEP:125.25
ATIS:125.5
CTAF:119.5
GND:125
RANCHO RDO:122.05
EXEC TWR:119.5
UNICOM:122.95

KSAC Zoom In..

If you have problems with the map follow the link
https://www.worldairports.se/pages/airport.php?
ICAO=KSAC

Runways:

(A) RW 02 length 5503 ft width 150 ft
ILS 110.30 / hdg 19

(B) RW 12 length 3837 ft width 100 ft
---- / hdg 119

(C) RW 16 length 3505 ft width 150 ft
---- / hdg 166

(D) RW 20 length 5503 ft width 150 ft
---- / hdg 199

(E) RW 30 length 3837 ft width 100 ft
---- / hdg 299

(F) RW 34 length 3505 ft width 150 ft
---- / hdg 346

Location; KSAC
Day. 26 / Time. 23.53 Zulu
* Altimeter: 30.20
* Temperature: 18° c. 64.4°f.
* Wind from: 120° Speed 04 kn.
Dewpoint: 09° c.
Visibility: 10 Statute Miles.
Clouds: Few 4600 ft.
Clouds: Broken 6000 ft.

KSAC 262353Z 12004KT 10SM FEW046 BKN060 18/09 A3020 RMK AO2 SLP227 T01780089 10189 20144 55000


Wind From 120°
Speed 04 kn.

 
 
jpsmedia worldairports.se 2020   terms of use